createdAt,value
2022-10-13T00:01:19.761Z,9.30
2022-10-13T00:03:47.581Z,9.20
2022-10-13T00:06:16.667Z,9.10
2022-10-13T00:08:43.568Z,9.00
2022-10-13T00:11:21.108Z,8.90
2022-10-13T00:13:49.286Z,9.00
2022-10-13T00:16:18.395Z,8.90
2022-10-13T00:18:46.151Z,8.90
2022-10-13T00:21:17.709Z,8.80
2022-10-13T00:49:09.843Z,8.70
2022-10-13T00:51:41.918Z,8.70
2022-10-13T00:54:11.441Z,8.70
2022-10-13T00:56:39.184Z,8.80
2022-10-13T00:59:12.749Z,8.70
2022-10-13T01:01:39.986Z,8.70
2022-10-13T01:04:06.886Z,8.70
2022-10-13T01:06:34.399Z,8.80
2022-10-13T01:09:01.302Z,8.80
2022-10-13T01:12:17.572Z,8.80
2022-10-13T01:14:59.751Z,8.90
2022-10-13T01:17:50.540Z,8.90
2022-10-13T01:20:29.314Z,8.90
2022-10-13T01:23:15.105Z,9.00
2022-10-13T01:26:06.554Z,9.00
2022-10-13T01:28:49.630Z,8.90
2022-10-13T01:31:24.731Z,8.90
2022-10-13T01:34:01.898Z,9.00
2022-10-13T01:36:47.031Z,9.00
2022-10-13T01:40:02.809Z,9.00
2022-10-13T01:42:56.659Z,9.10
2022-10-13T01:45:30.497Z,9.00
2022-10-13T01:47:59.565Z,9.00
2022-10-13T01:50:26.787Z,9.00
2022-10-13T01:52:54.834Z,9.00
2022-10-13T01:55:21.724Z,9.00
2022-10-13T01:57:48.462Z,9.00
2022-10-13T02:00:18.545Z,9.00
2022-10-13T02:02:49.295Z,8.90
2022-10-13T02:05:19.014Z,8.90
2022-10-13T02:08:03.563Z,8.90
2022-10-13T02:11:02.486Z,8.80
2022-10-13T02:13:32.393Z,8.90
2022-10-13T02:16:01.188Z,8.80
2022-10-13T02:18:34.539Z,8.80
2022-10-13T02:21:02.814Z,8.80
2022-10-13T02:23:30.361Z,8.80
2022-10-13T02:25:59.592Z,8.80
2022-10-13T02:28:27.724Z,8.80
2022-10-13T02:30:54.481Z,8.80
2022-10-13T02:33:21.608Z,8.80
2022-10-13T02:35:48.305Z,8.80
2022-10-13T02:38:15.468Z,8.80
2022-10-13T02:40:42.356Z,8.80
2022-10-13T02:43:09.108Z,8.90
2022-10-13T02:45:35.923Z,8.90
2022-10-13T02:48:02.963Z,8.90
2022-10-13T02:50:29.720Z,8.90
2022-10-13T02:52:56.498Z,8.90
2022-10-13T02:55:23.581Z,8.90
2022-10-13T02:57:50.529Z,9.00
2022-10-13T03:00:17.683Z,9.00
2022-10-13T03:02:44.802Z,9.00
2022-10-13T03:05:11.872Z,9.00
2022-10-13T03:07:38.625Z,9.10
2022-10-13T03:10:06.243Z,9.10
2022-10-13T03:12:33.022Z,9.10
2022-10-13T03:15:00.034Z,9.10
2022-10-13T03:17:27.313Z,9.20
2022-10-13T03:19:54.529Z,9.30
2022-10-13T03:22:22.057Z,9.30
2022-10-13T03:24:49.241Z,9.40
2022-10-13T03:27:16.061Z,9.40
2022-10-13T03:29:42.831Z,9.40
2022-10-13T03:32:10.436Z,9.40
2022-10-13T03:34:37.447Z,9.40
2022-10-13T03:37:04.667Z,9.40
2022-10-13T03:39:33.127Z,9.40
2022-10-13T03:42:00.025Z,9.50
2022-10-13T03:44:27.078Z,9.50
2022-10-13T03:46:54.211Z,9.50
2022-10-13T03:49:21.626Z,9.60
2022-10-13T03:51:50.681Z,9.50
2022-10-13T03:54:19.748Z,9.60
2022-10-13T03:56:50.030Z,9.60
2022-10-13T03:59:18.879Z,9.60
2022-10-13T04:01:45.870Z,9.70
2022-10-13T04:04:13.287Z,9.60
2022-10-13T04:06:40.620Z,9.60
2022-10-13T04:09:07.880Z,9.50
2022-10-13T04:11:35.035Z,9.50
2022-10-13T04:14:02.233Z,9.50
2022-10-13T04:16:34.862Z,9.40
2022-10-13T04:19:05.843Z,9.40
2022-10-13T04:21:34.956Z,9.40
2022-10-13T04:24:02.824Z,9.30
2022-10-13T04:26:35.545Z,9.40
2022-10-13T04:29:07.921Z,9.30
2022-10-13T04:31:37.663Z,9.30
2022-10-13T04:34:05.128Z,9.30
2022-10-13T04:36:32.042Z,9.30
2022-10-13T04:38:59.613Z,9.30
2022-10-13T04:41:26.946Z,9.30
2022-10-13T04:43:54.844Z,9.30
2022-10-13T04:46:24.858Z,9.30
2022-10-13T04:48:52.428Z,9.30
2022-10-13T04:51:25.057Z,9.30
2022-10-13T04:53:59.442Z,9.30
2022-10-13T04:56:26.811Z,9.30
2022-10-13T04:58:54.554Z,9.40
2022-10-13T05:01:24.588Z,9.40
2022-10-13T05:03:53.465Z,9.40
2022-10-13T05:06:23.054Z,9.40
2022-10-13T05:08:51.040Z,9.40
2022-10-13T05:11:20.708Z,9.40
2022-10-13T05:13:48.798Z,9.40
2022-10-13T05:16:17.916Z,9.30
2022-10-13T05:18:45.698Z,9.30
2022-10-13T05:21:18.261Z,9.30
2022-10-13T05:23:45.936Z,9.30
2022-10-13T05:26:15.803Z,9.30
2022-10-13T05:28:44.010Z,9.40
2022-10-13T05:31:15.232Z,9.30
2022-10-13T05:33:43.434Z,9.30
2022-10-13T05:36:23.903Z,9.30
2022-10-13T05:38:56.247Z,9.30
2022-10-13T05:41:24.712Z,9.30
2022-10-13T05:43:55.502Z,9.30
2022-10-13T05:46:22.645Z,9.40
2022-10-13T05:48:50.280Z,9.40
2022-10-13T05:51:22.700Z,9.40
2022-10-13T05:53:59.793Z,9.40
2022-10-13T05:56:33.075Z,9.40
2022-10-13T05:59:04.707Z,9.40
2022-10-13T06:01:36.631Z,9.50
2022-10-13T06:04:09.584Z,9.50
2022-10-13T06:06:36.563Z,9.50
2022-10-13T06:09:03.754Z,9.50
2022-10-13T06:11:30.817Z,9.50
2022-10-13T06:13:57.869Z,9.50
2022-10-13T06:16:24.802Z,9.50
2022-10-13T06:18:51.817Z,9.60
2022-10-13T06:21:19.008Z,9.70
2022-10-13T06:23:45.941Z,9.70
2022-10-13T06:26:12.875Z,9.70
2022-10-13T06:28:40.203Z,9.80
2022-10-13T06:31:07.525Z,9.80
2022-10-13T06:33:34.602Z,9.80
2022-10-13T06:36:06.099Z,9.80
2022-10-13T06:38:33.667Z,9.90
2022-10-13T06:41:04.184Z,9.90
2022-10-13T06:43:39.743Z,10.00
2022-10-13T06:46:07.670Z,10.00
2022-10-13T06:48:34.779Z,10.00
2022-10-13T06:51:03.646Z,10.20
2022-10-13T06:53:30.689Z,10.30
2022-10-13T06:56:02.644Z,10.30
2022-10-13T06:58:29.831Z,10.30
2022-10-13T07:00:57.572Z,10.40
2022-10-13T07:03:25.288Z,10.50
2022-10-13T07:05:52.544Z,10.50
2022-10-13T07:08:19.964Z,10.60
2022-10-13T07:10:47.301Z,10.60
2022-10-13T07:13:14.211Z,10.70
2022-10-13T07:15:41.424Z,10.70
2022-10-13T07:18:08.461Z,10.70
2022-10-13T07:20:35.807Z,10.70
2022-10-13T07:23:02.831Z,10.80
2022-10-13T07:25:30.026Z,10.80
2022-10-13T07:27:59.278Z,10.80
2022-10-13T07:30:26.718Z,10.90
2022-10-13T07:32:53.705Z,10.90
2022-10-13T07:35:22.609Z,11.00
2022-10-13T07:37:54.048Z,11.00
2022-10-13T07:40:20.981Z,11.10
2022-10-13T07:42:48.007Z,11.30
2022-10-13T07:45:14.939Z,11.40
2022-10-13T07:47:41.944Z,11.60
2022-10-13T07:50:10.347Z,11.70
2022-10-13T07:52:37.409Z,11.70
2022-10-13T07:55:04.732Z,11.80
2022-10-13T07:57:31.758Z,11.80
2022-10-13T07:59:58.623Z,11.80
2022-10-13T08:02:26.384Z,11.80
2022-10-13T08:04:53.332Z,11.80
2022-10-13T08:07:20.893Z,11.80
2022-10-13T08:09:48.075Z,11.80
2022-10-13T08:12:15.108Z,11.80
2022-10-13T08:14:42.616Z,11.80
2022-10-13T08:17:09.497Z,11.80
2022-10-13T08:19:36.696Z,11.90
2022-10-13T08:22:07.708Z,12.00
2022-10-13T08:24:36.575Z,12.20
2022-10-13T08:27:03.901Z,12.30
2022-10-13T08:29:30.800Z,12.40
2022-10-13T08:31:57.855Z,12.50
2022-10-13T08:34:25.686Z,12.50
2022-10-13T08:36:56.284Z,12.50
2022-10-13T08:39:24.430Z,12.50
2022-10-13T08:41:52.024Z,12.50
2022-10-13T08:45:16.161Z,12.50
2022-10-13T08:47:48.587Z,12.60
2022-10-13T08:50:19.355Z,12.60
2022-10-13T08:52:59.941Z,12.60
2022-10-13T08:55:35.049Z,12.70
2022-10-13T08:58:06.807Z,12.50
2022-10-13T09:00:33.613Z,12.40
2022-10-13T09:03:22.804Z,12.30
2022-10-13T09:06:28.597Z,12.40
2022-10-13T09:08:59.458Z,12.40
2022-10-13T09:11:35.763Z,12.40
2022-10-13T09:14:12.701Z,12.40
2022-10-13T09:16:45.363Z,12.40
2022-10-13T09:19:30.315Z,12.40
2022-10-13T09:22:13.237Z,12.50
2022-10-13T09:24:40.393Z,12.60
2022-10-13T09:27:17.360Z,12.60
2022-10-13T09:29:45.524Z,12.70
2022-10-13T09:32:25.868Z,12.70
2022-10-13T09:34:53.574Z,12.80
2022-10-13T09:37:22.373Z,12.90
2022-10-13T09:40:20.343Z,12.90
2022-10-13T09:42:54.643Z,12.90
2022-10-13T09:45:24.678Z,12.80
2022-10-13T09:47:54.984Z,12.70
2022-10-13T09:50:32.884Z,12.60
2022-10-13T09:53:17.866Z,12.60
2022-10-13T09:55:48.697Z,12.60
2022-10-13T09:58:26.427Z,12.70
2022-10-13T10:00:54.382Z,12.70
2022-10-13T10:03:29.610Z,12.80
2022-10-13T10:06:07.808Z,12.80
2022-10-13T10:09:01.985Z,13.00
2022-10-13T10:11:42.481Z,13.20
2022-10-13T10:14:25.099Z,13.40
2022-10-13T10:17:12.033Z,13.50
2022-10-13T10:19:53.605Z,13.60
2022-10-13T10:22:58.392Z,13.80
2022-10-13T10:25:28.129Z,13.90
2022-10-13T10:28:10.087Z,13.90
2022-10-13T10:30:45.179Z,14.10
2022-10-13T10:33:20.095Z,14.40
2022-10-13T10:36:02.734Z,14.70
2022-10-13T10:38:44.830Z,14.90
2022-10-13T10:41:42.876Z,14.80
2022-10-13T10:44:41.503Z,14.90
2022-10-13T10:47:22.525Z,14.90
2022-10-13T10:49:57.369Z,15.20
2022-10-13T10:52:48.616Z,15.50
2022-10-13T10:55:38.209Z,15.70
2022-10-13T10:58:13.950Z,15.80
2022-10-13T11:00:51.317Z,15.90
2022-10-13T11:03:28.136Z,15.80
2022-10-13T11:05:58.079Z,15.60
2022-10-13T11:08:47.110Z,15.50
2022-10-13T11:11:26.654Z,15.60
2022-10-13T11:14:21.611Z,15.60
2022-10-13T11:17:16.473Z,15.60
2022-10-13T11:19:43.565Z,15.80
2022-10-13T11:22:16.217Z,15.90
2022-10-13T11:24:48.349Z,16.10
2022-10-13T11:27:15.150Z,16.10
2022-10-13T11:29:46.468Z,16.20
2022-10-13T11:32:30.604Z,16.30
2022-10-13T11:35:04.775Z,16.40
2022-10-13T11:38:07.437Z,16.40
2022-10-13T11:40:44.638Z,16.40
2022-10-13T11:43:48.979Z,16.50
2022-10-13T11:46:25.024Z,16.40
2022-10-13T11:49:04.523Z,16.40
2022-10-13T11:52:10.367Z,16.30
2022-10-13T11:54:43.531Z,16.40
2022-10-13T11:57:25.354Z,16.50
2022-10-13T11:59:56.853Z,16.80
2022-10-13T12:02:26.241Z,16.90
2022-10-13T12:05:07.042Z,17.10
2022-10-13T12:07:38.023Z,17.10
2022-10-13T12:10:08.744Z,16.90
2022-10-13T12:12:35.848Z,17.00
2022-10-13T12:15:06.735Z,16.80
2022-10-13T12:17:39.018Z,16.80
2022-10-13T12:20:24.265Z,16.70
2022-10-13T12:22:52.883Z,16.70
2022-10-13T12:25:22.661Z,16.90
2022-10-13T12:27:55.997Z,17.00
2022-10-13T12:30:37.881Z,17.10
2022-10-13T12:33:22.592Z,17.00
2022-10-13T12:35:49.422Z,17.10
2022-10-13T12:38:19.912Z,16.80
2022-10-13T12:40:49.245Z,16.40
2022-10-13T12:43:20.174Z,16.30
2022-10-13T12:45:47.077Z,16.20
2022-10-13T12:48:32.800Z,16.30
2022-10-13T12:51:19.819Z,16.00
2022-10-13T12:53:47.940Z,16.10
2022-10-13T12:56:30.830Z,16.10
2022-10-13T12:58:58.921Z,16.10
2022-10-13T13:01:34.490Z,16.30
2022-10-13T13:04:27.699Z,16.30
2022-10-13T13:06:59.295Z,16.40
2022-10-13T13:09:31.554Z,16.50
2022-10-13T13:12:06.999Z,16.40
2022-10-13T13:14:43.673Z,16.50
2022-10-13T13:20:26.839Z,16.70
2022-10-13T13:22:54.480Z,16.60
2022-10-13T13:25:22.170Z,16.50
2022-10-13T13:27:49.190Z,16.40
2022-10-13T13:30:18.716Z,16.50
2022-10-13T13:32:45.762Z,16.50
2022-10-13T13:35:12.918Z,16.50
2022-10-13T13:37:52.995Z,16.50
2022-10-13T13:40:31.962Z,16.40
2022-10-13T13:42:59.043Z,16.40
2022-10-13T13:45:25.788Z,16.40
2022-10-13T13:47:54.186Z,16.40
2022-10-13T13:50:38.411Z,16.50
2022-10-13T13:53:07.424Z,16.60
2022-10-13T13:55:34.208Z,16.60
2022-10-13T13:58:01.203Z,16.60
2022-10-13T14:00:28.234Z,16.60
2022-10-13T14:02:56.227Z,16.60
2022-10-13T14:05:23.720Z,16.40
2022-10-13T14:07:54.487Z,16.30
2022-10-13T14:10:21.259Z,16.20
2022-10-13T14:12:48.082Z,16.20
2022-10-13T14:15:14.947Z,16.20
2022-10-13T14:17:41.683Z,16.10
2022-10-13T14:20:09.539Z,16.20
2022-10-13T14:22:39.870Z,16.10
2022-10-13T14:25:07.300Z,16.10
2022-10-13T14:27:35.221Z,16.10
2022-10-13T14:30:02.489Z,16.20
2022-10-13T14:32:29.515Z,16.30
2022-10-13T14:34:56.549Z,16.20
2022-10-13T14:37:25.850Z,16.40
2022-10-13T14:39:54.728Z,16.50
2022-10-13T14:42:21.993Z,16.50
2022-10-13T14:44:48.835Z,16.60
2022-10-13T14:47:15.723Z,16.60
2022-10-13T14:49:42.522Z,16.60
2022-10-13T14:52:09.949Z,16.60
2022-10-13T14:54:40.010Z,16.60
2022-10-13T14:57:09.309Z,16.70
2022-10-13T14:59:36.468Z,16.50
2022-10-13T15:02:04.008Z,16.60
2022-10-13T15:04:31.071Z,16.60
2022-10-13T15:06:58.301Z,16.50
2022-10-13T15:09:33.516Z,16.50
2022-10-13T15:12:11.885Z,16.50
2022-10-13T15:14:38.741Z,16.40
2022-10-13T15:17:05.577Z,16.30
2022-10-13T15:19:32.666Z,16.30
2022-10-13T15:22:00.291Z,16.30
2022-10-13T15:24:27.334Z,16.10
2022-10-13T15:26:54.271Z,16.00
2022-10-13T15:29:21.332Z,15.90
2022-10-13T15:31:48.107Z,15.80
2022-10-13T15:34:15.054Z,15.70
2022-10-13T15:36:41.755Z,15.60
2022-10-13T15:39:10.953Z,15.40
2022-10-13T15:41:38.068Z,15.30
2022-10-13T15:44:04.897Z,15.20
2022-10-13T15:46:31.730Z,15.20
2022-10-13T15:48:59.978Z,15.10
2022-10-13T15:51:27.270Z,15.00
2022-10-13T15:53:55.399Z,15.00
2022-10-13T15:56:22.337Z,15.00
2022-10-13T15:58:49.153Z,14.90
2022-10-13T16:01:16.179Z,14.90
2022-10-13T16:03:43.237Z,14.90
2022-10-13T16:06:13.265Z,14.80
2022-10-13T16:08:42.446Z,14.70
2022-10-13T16:11:11.194Z,14.70
2022-10-13T16:13:38.722Z,14.70
2022-10-13T16:16:06.056Z,14.70
2022-10-13T16:18:35.840Z,14.70
2022-10-13T16:21:18.251Z,14.70
2022-10-13T16:23:46.358Z,14.60
2022-10-13T16:26:13.267Z,14.60
2022-10-13T16:28:40.526Z,14.50
2022-10-13T16:31:13.689Z,14.50
2022-10-13T16:33:41.692Z,14.40
2022-10-13T16:36:14.431Z,14.40
2022-10-13T16:38:41.834Z,14.30
2022-10-13T16:41:12.031Z,14.30
2022-10-13T16:43:40.143Z,14.30
2022-10-13T16:46:08.317Z,14.30
2022-10-13T16:48:35.429Z,14.20
2022-10-13T16:51:07.308Z,14.10
2022-10-13T16:53:35.205Z,14.10
2022-10-13T16:56:04.313Z,14.10
2022-10-13T16:58:31.669Z,14.10
2022-10-13T17:01:08.864Z,14.00
2022-10-13T17:03:39.766Z,14.00
2022-10-13T17:06:07.149Z,13.90
2022-10-13T17:08:34.386Z,14.00
2022-10-13T17:11:01.615Z,13.90
2022-10-13T17:13:29.952Z,13.90
2022-10-13T17:15:57.526Z,13.90
2022-10-13T17:18:25.271Z,13.80
2022-10-13T17:20:53.955Z,13.80
2022-10-13T17:23:21.574Z,13.80
2022-10-13T17:25:49.303Z,13.80
2022-10-13T17:28:17.039Z,13.80
2022-10-13T17:30:44.797Z,13.80
2022-10-13T17:33:15.657Z,13.80
2022-10-13T17:35:42.915Z,13.80
2022-10-13T17:38:10.172Z,13.80
2022-10-13T17:40:37.188Z,13.80
2022-10-13T17:43:05.721Z,13.90
2022-10-13T17:45:33.475Z,13.90
2022-10-13T17:48:01.015Z,13.80
2022-10-13T17:50:29.481Z,13.80
2022-10-13T17:52:56.488Z,13.80
2022-10-13T17:55:26.559Z,13.80
2022-10-13T17:57:53.615Z,13.80
2022-10-13T18:00:20.782Z,13.80
2022-10-13T18:02:47.843Z,13.70
2022-10-13T18:05:14.695Z,13.70
2022-10-13T18:07:43.536Z,13.80
2022-10-13T18:10:11.246Z,13.70
2022-10-13T18:12:38.468Z,13.80
2022-10-13T18:15:06.175Z,13.80
2022-10-13T18:17:33.655Z,13.80
2022-10-13T18:20:00.748Z,13.70
2022-10-13T18:22:27.887Z,13.80
2022-10-13T18:24:57.212Z,13.80
2022-10-13T18:27:24.530Z,13.80
2022-10-13T18:29:51.516Z,13.80
2022-10-13T18:32:20.281Z,13.80
2022-10-13T18:34:47.246Z,13.80
2022-10-13T18:37:14.395Z,13.80
2022-10-13T18:39:41.482Z,13.80
2022-10-13T18:42:08.664Z,13.80
2022-10-13T18:44:41.097Z,13.80
2022-10-13T18:47:08.673Z,13.80
2022-10-13T18:49:35.851Z,13.80
2022-10-13T18:52:02.984Z,13.80
2022-10-13T18:54:30.985Z,13.80
2022-10-13T18:56:58.124Z,13.80
2022-10-13T18:59:25.160Z,13.80
2022-10-13T19:01:52.849Z,13.80
2022-10-13T19:04:21.636Z,13.80
2022-10-13T19:06:49.654Z,13.80
2022-10-13T19:09:17.653Z,13.80
2022-10-13T19:11:45.026Z,13.80
2022-10-13T19:14:13.831Z,13.80
2022-10-13T19:16:42.432Z,13.80
2022-10-13T19:19:09.855Z,13.80
2022-10-13T19:21:38.635Z,13.80
2022-10-13T19:24:06.834Z,13.70
2022-10-13T19:26:35.308Z,13.70
2022-10-13T19:29:05.742Z,13.70
2022-10-13T19:31:34.316Z,13.70
2022-10-13T19:34:01.749Z,13.60
2022-10-13T19:36:36.068Z,13.60
2022-10-13T19:39:07.215Z,13.60
2022-10-13T19:41:36.476Z,13.60
2022-10-13T19:44:04.499Z,13.50
2022-10-13T19:46:31.661Z,13.60
2022-10-13T19:48:58.829Z,13.50
2022-10-13T19:51:25.846Z,13.60
2022-10-13T19:53:52.883Z,13.50
2022-10-13T19:56:23.445Z,13.50
2022-10-13T19:58:51.744Z,13.40
2022-10-13T20:01:19.507Z,13.50
2022-10-13T20:03:47.006Z,13.40
2022-10-13T20:06:15.315Z,13.50
2022-10-13T20:08:42.468Z,13.50
2022-10-13T20:11:11.766Z,13.50
2022-10-13T20:13:39.131Z,13.40
2022-10-13T20:16:13.636Z,13.40
2022-10-13T20:18:41.228Z,13.40
2022-10-13T20:21:10.648Z,13.40
2022-10-13T20:23:38.373Z,13.40
2022-10-13T20:26:07.616Z,13.40
2022-10-13T20:28:39.224Z,13.40
2022-10-13T20:31:10.682Z,13.40
2022-10-13T20:33:37.515Z,13.40
2022-10-13T20:36:09.591Z,13.50
2022-10-13T20:38:37.041Z,13.50
2022-10-13T20:41:10.518Z,13.40
2022-10-13T20:43:37.263Z,13.40
2022-10-13T20:46:06.483Z,13.40
2022-10-13T20:48:51.471Z,13.40
2022-10-13T20:51:23.551Z,13.40
2022-10-13T20:53:52.006Z,13.40
2022-10-13T20:56:24.275Z,13.40
2022-10-13T20:58:52.352Z,13.30
2022-10-13T21:01:21.296Z,13.30
2022-10-13T21:03:53.019Z,13.30
2022-10-13T21:06:20.152Z,13.40
2022-10-13T21:08:47.523Z,13.40
2022-10-13T21:11:16.370Z,13.40
2022-10-13T21:13:44.585Z,13.40
2022-10-13T21:16:17.152Z,13.40
2022-10-13T21:18:49.090Z,13.40
2022-10-13T21:21:28.331Z,13.30
2022-10-13T21:24:00.425Z,13.40
2022-10-13T21:26:29.064Z,13.50
2022-10-13T21:28:56.758Z,13.50
2022-10-13T21:31:25.334Z,13.50
2022-10-13T21:33:52.718Z,13.50
2022-10-13T21:36:21.596Z,13.50
2022-10-13T21:38:51.903Z,13.50
2022-10-13T21:41:19.522Z,13.50
2022-10-13T21:43:46.811Z,13.50
2022-10-13T21:46:23.329Z,13.50
2022-10-13T21:48:52.078Z,13.50
2022-10-13T21:51:24.971Z,13.60
2022-10-13T21:53:57.453Z,13.60
2022-10-13T21:56:26.278Z,13.60
2022-10-13T21:58:54.633Z,13.60
2022-10-13T22:01:22.514Z,13.60
2022-10-13T22:03:54.235Z,13.60
2022-10-13T22:06:21.434Z,13.60
2022-10-13T22:08:50.496Z,13.60
2022-10-13T22:11:18.254Z,13.60
2022-10-13T22:13:45.231Z,13.60
2022-10-13T22:16:24.485Z,13.60
2022-10-13T22:18:52.780Z,13.70
2022-10-13T22:21:23.274Z,13.70
2022-10-13T22:23:50.529Z,13.70
2022-10-13T22:26:19.073Z,13.60
2022-10-13T22:28:48.159Z,13.60
2022-10-13T22:31:15.257Z,13.60
2022-10-13T22:33:43.230Z,13.50
2022-10-13T22:36:18.563Z,13.50
2022-10-13T22:38:46.920Z,13.50
2022-10-13T22:41:15.106Z,13.50
2022-10-13T22:43:44.531Z,13.50
2022-10-13T22:46:16.774Z,13.50
2022-10-13T22:48:44.288Z,13.50
2022-10-13T22:51:13.405Z,13.50
2022-10-13T22:53:40.290Z,13.50
2022-10-13T22:56:09.277Z,13.50
2022-10-13T22:58:36.514Z,13.50
2022-10-13T23:01:10.677Z,13.50
2022-10-13T23:03:38.745Z,13.50
2022-10-13T23:06:07.332Z,13.50
2022-10-13T23:08:35.310Z,13.50
2022-10-13T23:11:02.183Z,13.50
2022-10-13T23:13:28.980Z,13.50
2022-10-13T23:16:01.783Z,13.50
2022-10-13T23:18:28.519Z,13.50
2022-10-13T23:20:56.986Z,13.50
2022-10-13T23:23:24.189Z,13.50
2022-10-13T23:25:51.064Z,13.50
2022-10-13T23:28:18.056Z,13.40
2022-10-13T23:30:44.888Z,13.40
2022-10-13T23:33:11.827Z,13.40
2022-10-13T23:35:38.781Z,13.40
2022-10-13T23:38:07.240Z,13.40
2022-10-13T23:40:34.222Z,13.30
2022-10-13T23:43:01.200Z,13.30
2022-10-13T23:45:28.084Z,13.30
2022-10-13T23:47:54.903Z,13.30
2022-10-13T23:50:21.941Z,13.30
2022-10-13T23:52:48.874Z,13.30
2022-10-13T23:55:15.873Z,13.20
2022-10-13T23:57:42.670Z,13.20
